sensor_id;sensor_type;location;lat;lon;timestamp;P1;durP1;ratioP1;P2;durP2;ratioP2
60831;SDS011;46665;51.558;-0.448;2023-02-15T00:01:49;11.93;;;6.88;;
60831;SDS011;46665;51.558;-0.448;2023-02-15T00:04:34;24.55;;;7.68;;
60831;SDS011;46665;51.558;-0.448;2023-02-15T00:07:30;17.88;;;7.03;;
60831;SDS011;46665;51.558;-0.448;2023-02-15T00:10:14;10.93;;;5.45;;
60831;SDS011;46665;51.558;-0.448;2023-02-15T00:12:59;13.15;;;6.30;;
60831;SDS011;46665;51.558;-0.448;2023-02-15T00:15:43;23.13;;;6.60;;
60831;SDS011;46665;51.558;-0.448;2023-02-15T00:18:27;15.40;;;8.32;;
60831;SDS011;46665;51.558;-0.448;2023-02-15T00:21:11;12.60;;;5.95;;
60831;SDS011;46665;51.558;-0.448;2023-02-15T00:23:55;11.93;;;6.20;;
60831;SDS011;46665;51.558;-0.448;2023-02-15T00:26:41;16.73;;;6.43;;
60831;SDS011;46665;51.558;-0.448;2023-02-15T00:29:26;9.93;;;6.05;;
60831;SDS011;46665;51.558;-0.448;2023-02-15T00:32:10;16.50;;;8.40;;
60831;SDS011;46665;51.558;-0.448;2023-02-15T00:34:54;11.75;;;6.07;;
60831;SDS011;46665;51.558;-0.448;2023-02-15T00:37:38;10.65;;;6.05;;
60831;SDS011;46665;51.558;-0.448;2023-02-15T00:40:22;16.88;;;7.20;;
60831;SDS011;46665;51.558;-0.448;2023-02-15T00:43:06;10.00;;;5.55;;
60831;SDS011;46665;51.558;-0.448;2023-02-15T00:45:50;15.05;;;6.60;;
60831;SDS011;46665;51.558;-0.448;2023-02-15T00:48:35;11.50;;;5.50;;
60831;SDS011;46665;51.558;-0.448;2023-02-15T00:51:19;14.23;;;7.15;;
60831;SDS011;46665;51.558;-0.448;2023-02-15T00:54:04;13.15;;;5.25;;
60831;SDS011;46665;51.558;-0.448;2023-02-15T00:56:48;12.02;;;6.03;;
60831;SDS011;46665;51.558;-0.448;2023-02-15T00:59:32;9.65;;;6.63;;
60831;SDS011;46665;51.558;-0.448;2023-02-15T01:02:16;8.45;;;6.95;;
60831;SDS011;46665;51.558;-0.448;2023-02-15T01:04:59;16.17;;;6.95;;
60831;SDS011;46665;51.558;-0.448;2023-02-15T01:07:43;10.98;;;6.72;;
60831;SDS011;46665;51.558;-0.448;2023-02-15T01:10:27;11.23;;;6.57;;
60831;SDS011;46665;51.558;-0.448;2023-02-15T01:13:12;12.18;;;5.78;;
60831;SDS011;46665;51.558;-0.448;2023-02-15T01:15:57;8.25;;;5.22;;
60831;SDS011;46665;51.558;-0.448;2023-02-15T01:18:41;14.57;;;7.45;;
60831;SDS011;46665;51.558;-0.448;2023-02-15T01:21:25;11.25;;;6.22;;
60831;SDS011;46665;51.558;-0.448;2023-02-15T01:24:12;17.55;;;7.70;;
60831;SDS011;46665;51.558;-0.448;2023-02-15T01:26:57;24.08;;;7.50;;
60831;SDS011;46665;51.558;-0.448;2023-02-15T01:29:41;17.27;;;8.65;;
60831;SDS011;46665;51.558;-0.448;2023-02-15T01:32:25;13.57;;;6.70;;
60831;SDS011;46665;51.558;-0.448;2023-02-15T01:35:10;17.58;;;7.80;;
60831;SDS011;46665;51.558;-0.448;2023-02-15T01:37:55;11.05;;;5.47;;
60831;SDS011;46665;51.558;-0.448;2023-02-15T01:40:40;10.30;;;5.25;;
60831;SDS011;46665;51.558;-0.448;2023-02-15T01:43:38;10.25;;;6.75;;
60831;SDS011;46665;51.558;-0.448;2023-02-15T01:46:33;13.48;;;6.80;;
60831;SDS011;46665;51.558;-0.448;2023-02-15T01:49:21;12.45;;;6.00;;
60831;SDS011;46665;51.558;-0.448;2023-02-15T01:52:10;17.52;;;6.43;;
60831;SDS011;46665;51.558;-0.448;2023-02-15T01:54:57;20.13;;;6.55;;
60831;SDS011;46665;51.558;-0.448;2023-02-15T01:57:41;19.60;;;6.63;;
60831;SDS011;46665;51.558;-0.448;2023-02-15T02:00:26;9.18;;;6.25;;
60831;SDS011;46665;51.558;-0.448;2023-02-15T02:03:10;21.05;;;7.70;;
60831;SDS011;46665;51.558;-0.448;2023-02-15T02:05:54;10.55;;;6.03;;
60831;SDS011;46665;51.558;-0.448;2023-02-15T02:08:38;9.30;;;4.75;;
60831;SDS011;46665;51.558;-0.448;2023-02-15T02:11:23;9.65;;;5.38;;
60831;SDS011;46665;51.558;-0.448;2023-02-15T02:14:08;12.20;;;5.82;;
60831;SDS011;46665;51.558;-0.448;2023-02-15T02:16:54;7.22;;;5.20;;
60831;SDS011;46665;51.558;-0.448;2023-02-15T02:19:45;5.68;;;4.80;;
60831;SDS011;46665;51.558;-0.448;2023-02-15T02:22:45;28.48;;;7.55;;
60831;SDS011;46665;51.558;-0.448;2023-02-15T02:32:05;8.23;;;5.05;;
60831;SDS011;46665;51.558;-0.448;2023-02-15T02:35:11;12.43;;;5.80;;
60831;SDS011;46665;51.558;-0.448;2023-02-15T02:38:06;7.55;;;4.50;;
60831;SDS011;46665;51.558;-0.448;2023-02-15T02:40:54;12.13;;;7.38;;
60831;SDS011;46665;51.558;-0.448;2023-02-15T02:43:51;8.57;;;5.75;;
60831;SDS011;46665;51.558;-0.448;2023-02-15T02:46:42;15.48;;;5.40;;
60831;SDS011;46665;51.558;-0.448;2023-02-15T02:49:39;12.30;;;5.30;;
60831;SDS011;46665;51.558;-0.448;2023-02-15T02:55:30;13.30;;;6.60;;
60831;SDS011;46665;51.558;-0.448;2023-02-15T02:58:21;10.15;;;5.47;;
60831;SDS011;46665;51.558;-0.448;2023-02-15T03:01:27;7.40;;;4.72;;
60831;SDS011;46665;51.558;-0.448;2023-02-15T03:04:36;17.83;;;5.93;;
60831;SDS011;46665;51.558;-0.448;2023-02-15T03:07:22;9.70;;;5.82;;
60831;SDS011;46665;51.558;-0.448;2023-02-15T03:10:08;13.52;;;5.75;;
60831;SDS011;46665;51.558;-0.448;2023-02-15T03:12:53;12.23;;;6.38;;
60831;SDS011;46665;51.558;-0.448;2023-02-15T03:15:38;8.27;;;4.55;;
60831;SDS011;46665;51.558;-0.448;2023-02-15T03:18:45;10.52;;;5.68;;
60831;SDS011;46665;51.558;-0.448;2023-02-15T03:24:24;7.75;;;5.85;;
60831;SDS011;46665;51.558;-0.448;2023-02-15T03:27:17;13.65;;;7.18;;
60831;SDS011;46665;51.558;-0.448;2023-02-15T03:30:04;9.25;;;4.85;;
60831;SDS011;46665;51.558;-0.448;2023-02-15T03:32:50;5.80;;;5.13;;
60831;SDS011;46665;51.558;-0.448;2023-02-15T03:35:39;14.63;;;7.15;;
60831;SDS011;46665;51.558;-0.448;2023-02-15T03:38:26;12.18;;;6.40;;
60831;SDS011;46665;51.558;-0.448;2023-02-15T03:41:17;21.50;;;7.60;;
60831;SDS011;46665;51.558;-0.448;2023-02-15T03:44:13;8.55;;;4.70;;
60831;SDS011;46665;51.558;-0.448;2023-02-15T03:47:10;5.68;;;4.50;;
60831;SDS011;46665;51.558;-0.448;2023-02-15T03:50:02;19.20;;;7.82;;
60831;SDS011;46665;51.558;-0.448;2023-02-15T03:53:10;13.68;;;6.88;;
60831;SDS011;46665;51.558;-0.448;2023-02-15T03:55:57;9.90;;;5.75;;
60831;SDS011;46665;51.558;-0.448;2023-02-15T03:58:41;16.38;;;7.68;;
60831;SDS011;46665;51.558;-0.448;2023-02-15T04:04:59;7.82;;;6.22;;
60831;SDS011;46665;51.558;-0.448;2023-02-15T04:07:43;16.50;;;6.65;;
60831;SDS011;46665;51.558;-0.448;2023-02-15T04:10:27;20.42;;;6.05;;
60831;SDS011;46665;51.558;-0.448;2023-02-15T04:13:31;8.70;;;5.47;;
60831;SDS011;46665;51.558;-0.448;2023-02-15T04:16:15;10.35;;;4.72;;
60831;SDS011;46665;51.558;-0.448;2023-02-15T04:18:59;13.05;;;7.25;;
60831;SDS011;46665;51.558;-0.448;2023-02-15T04:22:02;11.77;;;6.57;;
60831;SDS011;46665;51.558;-0.448;2023-02-15T04:25:05;10.13;;;5.65;;
60831;SDS011;46665;51.558;-0.448;2023-02-15T04:27:53;21.00;;;7.90;;
60831;SDS011;46665;51.558;-0.448;2023-02-15T04:30:38;10.63;;;7.13;;
60831;SDS011;46665;51.558;-0.448;2023-02-15T04:33:22;23.67;;;8.60;;
60831;SDS011;46665;51.558;-0.448;2023-02-15T04:36:06;13.77;;;6.13;;
60831;SDS011;46665;51.558;-0.448;2023-02-15T04:38:49;8.45;;;5.43;;
60831;SDS011;46665;51.558;-0.448;2023-02-15T04:41:34;11.00;;;6.10;;
60831;SDS011;46665;51.558;-0.448;2023-02-15T04:44:18;24.15;;;8.05;;
60831;SDS011;46665;51.558;-0.448;2023-02-15T04:47:02;8.18;;;5.18;;
60831;SDS011;46665;51.558;-0.448;2023-02-15T04:49:46;17.17;;;6.72;;
60831;SDS011;46665;51.558;-0.448;2023-02-15T04:52:30;8.88;;;5.35;;
60831;SDS011;46665;51.558;-0.448;2023-02-15T04:55:14;9.80;;;5.35;;
60831;SDS011;46665;51.558;-0.448;2023-02-15T04:57:58;17.63;;;7.38;;
60831;SDS011;46665;51.558;-0.448;2023-02-15T05:00:42;20.92;;;8.30;;
60831;SDS011;46665;51.558;-0.448;2023-02-15T05:03:26;19.20;;;9.20;;
60831;SDS011;46665;51.558;-0.448;2023-02-15T05:06:10;16.88;;;5.78;;
60831;SDS011;46665;51.558;-0.448;2023-02-15T05:08:54;28.77;;;7.70;;
60831;SDS011;46665;51.558;-0.448;2023-02-15T05:11:39;16.63;;;7.05;;
60831;SDS011;46665;51.558;-0.448;2023-02-15T05:14:23;10.48;;;7.43;;
60831;SDS011;46665;51.558;-0.448;2023-02-15T05:17:07;12.30;;;5.43;;
60831;SDS011;46665;51.558;-0.448;2023-02-15T05:19:51;8.73;;;5.43;;
60831;SDS011;46665;51.558;-0.448;2023-02-15T05:22:35;11.77;;;6.70;;
60831;SDS011;46665;51.558;-0.448;2023-02-15T05:25:19;16.42;;;6.65;;
60831;SDS011;46665;51.558;-0.448;2023-02-15T05:28:22;18.02;;;7.15;;
60831;SDS011;46665;51.558;-0.448;2023-02-15T05:31:15;9.05;;;5.55;;
60831;SDS011;46665;51.558;-0.448;2023-02-15T05:34:02;11.00;;;5.82;;
60831;SDS011;46665;51.558;-0.448;2023-02-15T05:36:46;12.75;;;6.38;;
60831;SDS011;46665;51.558;-0.448;2023-02-15T05:39:30;20.83;;;6.72;;
60831;SDS011;46665;51.558;-0.448;2023-02-15T05:42:14;12.38;;;6.93;;
60831;SDS011;46665;51.558;-0.448;2023-02-15T05:44:58;7.85;;;6.15;;
60831;SDS011;46665;51.558;-0.448;2023-02-15T05:47:42;10.48;;;5.43;;
60831;SDS011;46665;51.558;-0.448;2023-02-15T05:50:26;12.43;;;7.03;;
60831;SDS011;46665;51.558;-0.448;2023-02-15T05:53:10;7.22;;;5.45;;
60831;SDS011;46665;51.558;-0.448;2023-02-15T05:55:55;21.92;;;7.00;;
60831;SDS011;46665;51.558;-0.448;2023-02-15T05:58:42;18.13;;;6.85;;
60831;SDS011;46665;51.558;-0.448;2023-02-15T06:01:26;17.92;;;7.50;;
60831;SDS011;46665;51.558;-0.448;2023-02-15T06:04:10;16.75;;;6.93;;
60831;SDS011;46665;51.558;-0.448;2023-02-15T06:06:54;12.10;;;6.40;;
60831;SDS011;46665;51.558;-0.448;2023-02-15T06:09:38;13.43;;;5.63;;
60831;SDS011;46665;51.558;-0.448;2023-02-15T06:12:22;14.45;;;6.45;;
60831;SDS011;46665;51.558;-0.448;2023-02-15T06:15:06;13.80;;;6.07;;
60831;SDS011;46665;51.558;-0.448;2023-02-15T06:17:51;18.42;;;6.35;;
60831;SDS011;46665;51.558;-0.448;2023-02-15T06:20:35;11.70;;;7.13;;
60831;SDS011;46665;51.558;-0.448;2023-02-15T06:23:19;25.90;;;6.90;;
60831;SDS011;46665;51.558;-0.448;2023-02-15T06:26:03;10.90;;;5.68;;
60831;SDS011;46665;51.558;-0.448;2023-02-15T06:28:47;5.95;;;5.00;;
60831;SDS011;46665;51.558;-0.448;2023-02-15T06:31:31;15.10;;;6.25;;
60831;SDS011;46665;51.558;-0.448;2023-02-15T06:34:14;9.15;;;6.75;;
60831;SDS011;46665;51.558;-0.448;2023-02-15T06:36:59;6.53;;;4.88;;
60831;SDS011;46665;51.558;-0.448;2023-02-15T06:39:43;20.70;;;9.02;;
60831;SDS011;46665;51.558;-0.448;2023-02-15T06:42:28;8.82;;;4.00;;
60831;SDS011;46665;51.558;-0.448;2023-02-15T06:45:12;11.25;;;7.20;;
60831;SDS011;46665;51.558;-0.448;2023-02-15T06:47:57;8.80;;;5.35;;
60831;SDS011;46665;51.558;-0.448;2023-02-15T06:50:41;16.05;;;6.82;;
60831;SDS011;46665;51.558;-0.448;2023-02-15T06:53:25;15.30;;;6.65;;
60831;SDS011;46665;51.558;-0.448;2023-02-15T06:56:09;8.25;;;5.90;;
60831;SDS011;46665;51.558;-0.448;2023-02-15T06:58:54;11.50;;;7.28;;
60831;SDS011;46665;51.558;-0.448;2023-02-15T07:01:38;16.40;;;6.22;;
60831;SDS011;46665;51.558;-0.448;2023-02-15T07:04:22;13.88;;;7.50;;
60831;SDS011;46665;51.558;-0.448;2023-02-15T07:07:10;11.57;;;6.60;;
60831;SDS011;46665;51.558;-0.448;2023-02-15T07:09:55;7.63;;;5.50;;
60831;SDS011;46665;51.558;-0.448;2023-02-15T07:12:39;9.65;;;5.47;;
60831;SDS011;46665;51.558;-0.448;2023-02-15T07:15:25;13.38;;;5.57;;
60831;SDS011;46665;51.558;-0.448;2023-02-15T07:18:09;10.65;;;6.55;;
60831;SDS011;46665;51.558;-0.448;2023-02-15T07:20:54;16.27;;;7.93;;
60831;SDS011;46665;51.558;-0.448;2023-02-15T07:23:38;12.90;;;7.05;;
60831;SDS011;46665;51.558;-0.448;2023-02-15T07:26:23;22.73;;;8.07;;
60831;SDS011;46665;51.558;-0.448;2023-02-15T07:29:08;21.75;;;6.78;;
60831;SDS011;46665;51.558;-0.448;2023-02-15T07:31:52;17.63;;;6.25;;
60831;SDS011;46665;51.558;-0.448;2023-02-15T07:34:35;12.18;;;7.72;;
60831;SDS011;46665;51.558;-0.448;2023-02-15T07:37:19;12.98;;;6.68;;
60831;SDS011;46665;51.558;-0.448;2023-02-15T07:40:03;11.23;;;7.22;;
60831;SDS011;46665;51.558;-0.448;2023-02-15T07:42:48;16.80;;;7.18;;
60831;SDS011;46665;51.558;-0.448;2023-02-15T07:45:33;10.82;;;6.53;;
60831;SDS011;46665;51.558;-0.448;2023-02-15T07:48:17;13.88;;;8.02;;
60831;SDS011;46665;51.558;-0.448;2023-02-15T07:51:01;12.18;;;6.82;;
60831;SDS011;46665;51.558;-0.448;2023-02-15T07:53:47;20.48;;;6.55;;
60831;SDS011;46665;51.558;-0.448;2023-02-15T07:56:31;14.50;;;6.55;;
60831;SDS011;46665;51.558;-0.448;2023-02-15T07:59:16;11.20;;;6.85;;
60831;SDS011;46665;51.558;-0.448;2023-02-15T08:02:00;10.18;;;7.20;;
60831;SDS011;46665;51.558;-0.448;2023-02-15T08:04:44;11.32;;;6.13;;
60831;SDS011;46665;51.558;-0.448;2023-02-15T08:07:27;13.02;;;8.23;;
60831;SDS011;46665;51.558;-0.448;2023-02-15T08:10:11;8.95;;;6.00;;
60831;SDS011;46665;51.558;-0.448;2023-02-15T08:13:15;17.58;;;8.02;;
60831;SDS011;46665;51.558;-0.448;2023-02-15T08:15:59;13.43;;;6.93;;
60831;SDS011;46665;51.558;-0.448;2023-02-15T08:18:43;13.45;;;7.40;;
60831;SDS011;46665;51.558;-0.448;2023-02-15T08:21:28;19.27;;;9.18;;
60831;SDS011;46665;51.558;-0.448;2023-02-15T08:24:13;14.57;;;8.82;;
60831;SDS011;46665;51.558;-0.448;2023-02-15T08:27:02;14.82;;;7.75;;
60831;SDS011;46665;51.558;-0.448;2023-02-15T08:29:47;12.40;;;7.70;;
60831;SDS011;46665;51.558;-0.448;2023-02-15T08:32:31;11.23;;;6.78;;
60831;SDS011;46665;51.558;-0.448;2023-02-15T08:35:15;22.90;;;9.30;;
60831;SDS011;46665;51.558;-0.448;2023-02-15T08:38:00;9.23;;;7.03;;
60831;SDS011;46665;51.558;-0.448;2023-02-15T08:40:44;17.75;;;7.22;;
60831;SDS011;46665;51.558;-0.448;2023-02-15T08:43:28;20.52;;;8.60;;
60831;SDS011;46665;51.558;-0.448;2023-02-15T08:46:12;15.55;;;7.57;;
60831;SDS011;46665;51.558;-0.448;2023-02-15T08:48:57;12.57;;;7.32;;
60831;SDS011;46665;51.558;-0.448;2023-02-15T08:51:42;17.48;;;8.55;;
60831;SDS011;46665;51.558;-0.448;2023-02-15T08:54:26;18.42;;;10.10;;
60831;SDS011;46665;51.558;-0.448;2023-02-15T08:57:10;17.77;;;8.65;;
60831;SDS011;46665;51.558;-0.448;2023-02-15T08:59:54;17.10;;;8.65;;
60831;SDS011;46665;51.558;-0.448;2023-02-15T09:02:38;24.83;;;9.25;;
60831;SDS011;46665;51.558;-0.448;2023-02-15T09:05:22;25.38;;;8.40;;
60831;SDS011;46665;51.558;-0.448;2023-02-15T09:08:06;10.23;;;7.85;;
60831;SDS011;46665;51.558;-0.448;2023-02-15T09:10:50;22.08;;;7.70;;
60831;SDS011;46665;51.558;-0.448;2023-02-15T09:13:34;14.55;;;7.72;;
60831;SDS011;46665;51.558;-0.448;2023-02-15T09:16:18;25.02;;;10.30;;
60831;SDS011;46665;51.558;-0.448;2023-02-15T09:19:04;12.55;;;7.68;;
60831;SDS011;46665;51.558;-0.448;2023-02-15T09:21:48;19.17;;;9.73;;
60831;SDS011;46665;51.558;-0.448;2023-02-15T09:24:32;25.25;;;10.65;;
60831;SDS011;46665;51.558;-0.448;2023-02-15T09:27:17;22.80;;;10.63;;
60831;SDS011;46665;51.558;-0.448;2023-02-15T09:30:02;16.80;;;10.07;;
60831;SDS011;46665;51.558;-0.448;2023-02-15T09:32:47;25.05;;;9.27;;
60831;SDS011;46665;51.558;-0.448;2023-02-15T09:35:31;21.67;;;11.55;;
60831;SDS011;46665;51.558;-0.448;2023-02-15T09:38:16;32.58;;;12.93;;
60831;SDS011;46665;51.558;-0.448;2023-02-15T09:41:24;15.32;;;9.32;;
60831;SDS011;46665;51.558;-0.448;2023-02-15T10:00:02;20.48;;;9.48;;
60831;SDS011;46665;51.558;-0.448;2023-02-15T10:09:06;27.00;;;12.07;;
60831;SDS011;46665;51.558;-0.448;2023-02-15T10:15:14;29.00;;;12.48;;
60831;SDS011;46665;51.558;-0.448;2023-02-15T10:18:27;31.52;;;11.68;;
60831;SDS011;46665;51.558;-0.448;2023-02-15T10:24:47;23.42;;;11.55;;
60831;SDS011;46665;51.558;-0.448;2023-02-15T10:27:35;16.00;;;10.00;;
60831;SDS011;46665;51.558;-0.448;2023-02-15T10:30:34;30.50;;;13.73;;
60831;SDS011;46665;51.558;-0.448;2023-02-15T10:33:41;35.42;;;13.18;;
60831;SDS011;46665;51.558;-0.448;2023-02-15T10:39:41;23.20;;;10.45;;
60831;SDS011;46665;51.558;-0.448;2023-02-15T10:55:02;24.40;;;12.52;;
60831;SDS011;46665;51.558;-0.448;2023-02-15T10:57:51;24.17;;;11.38;;
60831;SDS011;46665;51.558;-0.448;2023-02-15T11:06:38;22.95;;;12.20;;
60831;SDS011;46665;51.558;-0.448;2023-02-15T11:09:29;33.47;;;11.85;;
60831;SDS011;46665;51.558;-0.448;2023-02-15T11:12:22;27.55;;;12.18;;
60831;SDS011;46665;51.558;-0.448;2023-02-15T11:15:16;31.05;;;11.25;;
60831;SDS011;46665;51.558;-0.448;2023-02-15T11:18:53;19.83;;;10.98;;
60831;SDS011;46665;51.558;-0.448;2023-02-15T11:21:27;19.70;;;9.30;;
60831;SDS011;46665;51.558;-0.448;2023-02-15T11:24:17;27.05;;;10.95;;
60831;SDS011;46665;51.558;-0.448;2023-02-15T11:32:50;20.35;;;9.82;;
60831;SDS011;46665;51.558;-0.448;2023-02-15T11:35:45;14.73;;;8.20;;
60831;SDS011;46665;51.558;-0.448;2023-02-15T11:38:43;21.15;;;9.15;;
60831;SDS011;46665;51.558;-0.448;2023-02-15T11:41:31;26.88;;;9.95;;
60831;SDS011;46665;51.558;-0.448;2023-02-15T11:44:27;22.17;;;10.40;;
60831;SDS011;46665;51.558;-0.448;2023-02-15T11:47:18;15.43;;;8.77;;
60831;SDS011;46665;51.558;-0.448;2023-02-15T11:50:02;15.27;;;8.15;;
60831;SDS011;46665;51.558;-0.448;2023-02-15T11:52:46;17.60;;;8.25;;
60831;SDS011;46665;51.558;-0.448;2023-02-15T11:55:31;9.68;;;6.50;;
60831;SDS011;46665;51.558;-0.448;2023-02-15T11:58:23;12.27;;;7.47;;
60831;SDS011;46665;51.558;-0.448;2023-02-15T12:04:40;13.18;;;7.25;;
60831;SDS011;46665;51.558;-0.448;2023-02-15T12:10:32;9.48;;;6.63;;
60831;SDS011;46665;51.558;-0.448;2023-02-15T12:13:20;15.30;;;6.43;;
60831;SDS011;46665;51.558;-0.448;2023-02-15T12:16:05;8.88;;;6.97;;
60831;SDS011;46665;51.558;-0.448;2023-02-15T12:18:55;10.65;;;6.15;;
60831;SDS011;46665;51.558;-0.448;2023-02-15T12:21:41;7.95;;;5.43;;
60831;SDS011;46665;51.558;-0.448;2023-02-15T12:24:32;9.57;;;6.05;;
60831;SDS011;46665;51.558;-0.448;2023-02-15T12:27:24;10.07;;;6.60;;
60831;SDS011;46665;51.558;-0.448;2023-02-15T12:33:13;20.60;;;6.72;;
60831;SDS011;46665;51.558;-0.448;2023-02-15T12:36:11;12.02;;;6.28;;
60831;SDS011;46665;51.558;-0.448;2023-02-15T12:44:38;22.50;;;5.53;;
60831;SDS011;46665;51.558;-0.448;2023-02-15T12:50:50;6.03;;;4.35;;
60831;SDS011;46665;51.558;-0.448;2023-02-15T12:53:35;11.43;;;6.13;;
60831;SDS011;46665;51.558;-0.448;2023-02-15T12:56:20;10.95;;;5.70;;
60831;SDS011;46665;51.558;-0.448;2023-02-15T12:59:12;11.35;;;6.00;;
60831;SDS011;46665;51.558;-0.448;2023-02-15T13:02:00;11.07;;;5.63;;
60831;SDS011;46665;51.558;-0.448;2023-02-15T13:05:04;12.13;;;6.00;;
60831;SDS011;46665;51.558;-0.448;2023-02-15T13:08:16;8.82;;;4.05;;
60831;SDS011;46665;51.558;-0.448;2023-02-15T13:11:04;9.10;;;6.07;;
60831;SDS011;46665;51.558;-0.448;2023-02-15T13:13:56;11.23;;;5.60;;
60831;SDS011;46665;51.558;-0.448;2023-02-15T13:16:42;8.30;;;5.07;;
60831;SDS011;46665;51.558;-0.448;2023-02-15T13:19:43;6.07;;;4.43;;
60831;SDS011;46665;51.558;-0.448;2023-02-15T13:22:40;9.82;;;4.60;;
60831;SDS011;46665;51.558;-0.448;2023-02-15T13:25:29;5.72;;;3.38;;
60831;SDS011;46665;51.558;-0.448;2023-02-15T13:28:18;5.22;;;3.35;;
60831;SDS011;46665;51.558;-0.448;2023-02-15T13:31:12;4.82;;;3.83;;
60831;SDS011;46665;51.558;-0.448;2023-02-15T13:34:19;4.57;;;3.45;;
60831;SDS011;46665;51.558;-0.448;2023-02-15T13:37:14;6.57;;;3.35;;
60831;SDS011;46665;51.558;-0.448;2023-02-15T13:42:55;8.98;;;3.40;;
60831;SDS011;46665;51.558;-0.448;2023-02-15T14:01:19;4.88;;;2.70;;
60831;SDS011;46665;51.558;-0.448;2023-02-15T14:07:36;2.53;;;2.22;;
60831;SDS011;46665;51.558;-0.448;2023-02-15T14:10:56;3.80;;;2.47;;
60831;SDS011;46665;51.558;-0.448;2023-02-15T14:19:55;10.27;;;3.00;;
60831;SDS011;46665;51.558;-0.448;2023-02-15T14:22:46;3.78;;;2.83;;
60831;SDS011;46665;51.558;-0.448;2023-02-15T14:25:49;4.28;;;2.30;;
60831;SDS011;46665;51.558;-0.448;2023-02-15T14:28:43;3.90;;;2.97;;
60831;SDS011;46665;51.558;-0.448;2023-02-15T14:31:53;6.10;;;2.75;;
60831;SDS011;46665;51.558;-0.448;2023-02-15T14:34:45;10.10;;;3.35;;
60831;SDS011;46665;51.558;-0.448;2023-02-15T14:47:01;2.80;;;2.30;;
60831;SDS011;46665;51.558;-0.448;2023-02-15T14:49:51;4.20;;;2.47;;
60831;SDS011;46665;51.558;-0.448;2023-02-15T14:52:42;5.10;;;2.88;;
60831;SDS011;46665;51.558;-0.448;2023-02-15T14:58:54;8.82;;;2.45;;
60831;SDS011;46665;51.558;-0.448;2023-02-15T15:01:41;2.33;;;2.00;;
60831;SDS011;46665;51.558;-0.448;2023-02-15T15:04:35;6.90;;;2.90;;
60831;SDS011;46665;51.558;-0.448;2023-02-15T15:07:26;2.58;;;2.38;;
60831;SDS011;46665;51.558;-0.448;2023-02-15T15:19:57;4.68;;;2.22;;
60831;SDS011;46665;51.558;-0.448;2023-02-15T15:22:28;4.18;;;2.83;;
60831;SDS011;46665;51.558;-0.448;2023-02-15T15:25:39;3.80;;;2.03;;
60831;SDS011;46665;51.558;-0.448;2023-02-15T15:49:38;5.93;;;2.80;;
60831;SDS011;46665;51.558;-0.448;2023-02-15T15:52:24;9.85;;;2.20;;
60831;SDS011;46665;51.558;-0.448;2023-02-15T15:55:14;2.90;;;1.97;;
60831;SDS011;46665;51.558;-0.448;2023-02-15T15:58:05;6.90;;;1.83;;
60831;SDS011;46665;51.558;-0.448;2023-02-15T16:00:52;1.92;;;1.80;;
60831;SDS011;46665;51.558;-0.448;2023-02-15T16:03:48;2.60;;;2.17;;
60831;SDS011;46665;51.558;-0.448;2023-02-15T16:06:35;3.25;;;1.80;;
60831;SDS011;46665;51.558;-0.448;2023-02-15T16:09:26;10.88;;;2.28;;
60831;SDS011;46665;51.558;-0.448;2023-02-15T16:12:14;5.10;;;2.05;;
60831;SDS011;46665;51.558;-0.448;2023-02-15T16:15:17;2.83;;;1.75;;
60831;SDS011;46665;51.558;-0.448;2023-02-15T16:18:03;11.30;;;1.63;;
60831;SDS011;46665;51.558;-0.448;2023-02-15T16:20:52;4.28;;;1.83;;
60831;SDS011;46665;51.558;-0.448;2023-02-15T16:29:43;5.93;;;1.50;;
60831;SDS011;46665;51.558;-0.448;2023-02-15T16:32:27;1.70;;;1.60;;
60831;SDS011;46665;51.558;-0.448;2023-02-15T16:35:16;2.15;;;1.48;;
60831;SDS011;46665;51.558;-0.448;2023-02-15T16:38:02;2.15;;;1.88;;
60831;SDS011;46665;51.558;-0.448;2023-02-15T16:40:48;1.40;;;1.30;;
60831;SDS011;46665;51.558;-0.448;2023-02-15T16:43:37;1.95;;;1.52;;
60831;SDS011;46665;51.558;-0.448;2023-02-15T16:46:27;3.08;;;1.95;;
60831;SDS011;46665;51.558;-0.448;2023-02-15T16:49:25;1.48;;;1.17;;
60831;SDS011;46665;51.558;-0.448;2023-02-15T16:52:11;4.60;;;2.00;;
60831;SDS011;46665;51.558;-0.448;2023-02-15T16:55:03;2.58;;;1.52;;
60831;SDS011;46665;51.558;-0.448;2023-02-15T16:57:49;8.02;;;1.65;;
60831;SDS011;46665;51.558;-0.448;2023-02-15T17:00:35;3.25;;;1.75;;
60831;SDS011;46665;51.558;-0.448;2023-02-15T17:03:22;6.72;;;2.22;;
60831;SDS011;46665;51.558;-0.448;2023-02-15T17:06:24;8.30;;;1.58;;
60831;SDS011;46665;51.558;-0.448;2023-02-15T17:09:14;6.00;;;2.28;;
60831;SDS011;46665;51.558;-0.448;2023-02-15T17:12:08;4.78;;;1.73;;
60831;SDS011;46665;51.558;-0.448;2023-02-15T17:14:54;5.97;;;1.77;;
60831;SDS011;46665;51.558;-0.448;2023-02-15T17:17:38;1.20;;;1.10;;
60831;SDS011;46665;51.558;-0.448;2023-02-15T17:20:22;6.13;;;2.33;;
60831;SDS011;46665;51.558;-0.448;2023-02-15T17:23:17;6.82;;;2.05;;
60831;SDS011;46665;51.558;-0.448;2023-02-15T17:29:09;4.18;;;2.03;;
60831;SDS011;46665;51.558;-0.448;2023-02-15T17:31:55;1.88;;;1.67;;
60831;SDS011;46665;51.558;-0.448;2023-02-15T17:37:32;4.22;;;2.00;;
60831;SDS011;46665;51.558;-0.448;2023-02-15T17:40:30;2.47;;;1.83;;
60831;SDS011;46665;51.558;-0.448;2023-02-15T17:43:19;3.95;;;2.20;;
60831;SDS011;46665;51.558;-0.448;2023-02-15T17:46:03;3.17;;;2.40;;
60831;SDS011;46665;51.558;-0.448;2023-02-15T17:48:48;7.05;;;2.92;;
60831;SDS011;46665;51.558;-0.448;2023-02-15T17:51:34;3.42;;;2.28;;
60831;SDS011;46665;51.558;-0.448;2023-02-15T17:54:18;2.63;;;2.22;;
60831;SDS011;46665;51.558;-0.448;2023-02-15T17:57:21;8.32;;;3.65;;
60831;SDS011;46665;51.558;-0.448;2023-02-15T18:00:05;4.10;;;2.58;;
60831;SDS011;46665;51.558;-0.448;2023-02-15T18:03:09;3.08;;;2.17;;
60831;SDS011;46665;51.558;-0.448;2023-02-15T18:06:14;3.42;;;2.30;;
60831;SDS011;46665;51.558;-0.448;2023-02-15T18:09:18;10.13;;;2.10;;
60831;SDS011;46665;51.558;-0.448;2023-02-15T18:12:23;2.38;;;2.10;;
60831;SDS011;46665;51.558;-0.448;2023-02-15T18:15:10;2.35;;;1.83;;
60831;SDS011;46665;51.558;-0.448;2023-02-15T18:17:55;2.60;;;2.40;;
60831;SDS011;46665;51.558;-0.448;2023-02-15T18:20:39;4.63;;;2.45;;
60831;SDS011;46665;51.558;-0.448;2023-02-15T18:23:26;7.13;;;2.67;;
60831;SDS011;46665;51.558;-0.448;2023-02-15T18:26:12;6.50;;;2.80;;
60831;SDS011;46665;51.558;-0.448;2023-02-15T18:29:01;2.00;;;1.70;;
60831;SDS011;46665;51.558;-0.448;2023-02-15T18:31:46;3.63;;;2.25;;
60831;SDS011;46665;51.558;-0.448;2023-02-15T18:34:38;5.32;;;2.65;;
60831;SDS011;46665;51.558;-0.448;2023-02-15T18:37:24;4.97;;;2.60;;
60831;SDS011;46665;51.558;-0.448;2023-02-15T18:40:15;7.20;;;2.95;;
60831;SDS011;46665;51.558;-0.448;2023-02-15T18:43:01;5.97;;;2.97;;
60831;SDS011;46665;51.558;-0.448;2023-02-15T18:45:45;5.55;;;2.65;;
60831;SDS011;46665;51.558;-0.448;2023-02-15T18:48:29;5.82;;;2.45;;
60831;SDS011;46665;51.558;-0.448;2023-02-15T18:51:20;6.38;;;2.90;;
60831;SDS011;46665;51.558;-0.448;2023-02-15T18:54:11;13.65;;;2.83;;
60831;SDS011;46665;51.558;-0.448;2023-02-15T18:57:02;4.82;;;3.50;;
60831;SDS011;46665;51.558;-0.448;2023-02-15T18:59:46;5.28;;;2.40;;
60831;SDS011;46665;51.558;-0.448;2023-02-15T19:02:30;10.65;;;3.38;;
60831;SDS011;46665;51.558;-0.448;2023-02-15T19:05:14;9.48;;;3.05;;
60831;SDS011;46665;51.558;-0.448;2023-02-15T19:08:00;12.40;;;3.47;;
60831;SDS011;46665;51.558;-0.448;2023-02-15T19:10:45;6.63;;;3.03;;
60831;SDS011;46665;51.558;-0.448;2023-02-15T19:13:29;4.35;;;2.67;;
60831;SDS011;46665;51.558;-0.448;2023-02-15T19:16:17;10.20;;;2.70;;
60831;SDS011;46665;51.558;-0.448;2023-02-15T19:19:11;4.13;;;2.33;;
60831;SDS011;46665;51.558;-0.448;2023-02-15T19:21:55;10.10;;;2.92;;
60831;SDS011;46665;51.558;-0.448;2023-02-15T19:24:40;4.30;;;3.17;;